sensor_id;sensor_type;location;lat;lon;timestamp;pressure;altitude;pressure_sealevel;temperature;humidity
13732;BME280;6937;56.096;12.664;2024-01-27T00:00:13;101736.94;;;5.42;100.00
13732;BME280;6937;56.096;12.664;2024-01-27T00:02:39;101722.94;;;5.38;100.00
13732;BME280;6937;56.096;12.664;2024-01-27T00:05:05;101770.59;;;5.40;100.00
13732;BME280;6937;56.096;12.664;2024-01-27T00:07:30;101751.22;;;5.38;100.00
13732;BME280;6937;56.096;12.664;2024-01-27T00:09:55;101784.88;;;5.35;100.00
13732;BME280;6937;56.096;12.664;2024-01-27T00:12:21;101761.72;;;5.41;100.00
13732;BME280;6937;56.096;12.664;2024-01-27T00:14:47;101749.22;;;5.44;100.00
13732;BME280;6937;56.096;12.664;2024-01-27T00:17:12;101797.00;;;5.43;100.00
13732;BME280;6937;56.096;12.664;2024-01-27T00:19:38;101782.16;;;5.37;100.00
13732;BME280;6937;56.096;12.664;2024-01-27T00:22:03;101766.09;;;5.42;100.00
13732;BME280;6937;56.096;12.664;2024-01-27T00:24:29;101796.25;;;5.39;100.00
13732;BME280;6937;56.096;12.664;2024-01-27T00:26:54;101793.53;;;5.41;100.00
13732;BME280;6937;56.096;12.664;2024-01-27T00:29:20;101812.16;;;5.39;100.00
13732;BME280;6937;56.096;12.664;2024-01-27T00:31:45;101836.91;;;5.38;100.00
13732;BME280;6937;56.096;12.664;2024-01-27T00:34:11;101833.38;;;5.39;100.00
13732;BME280;6937;56.096;12.664;2024-01-27T00:36:36;101829.06;;;5.35;100.00
13732;BME280;6937;56.096;12.664;2024-01-27T00:39:02;101842.34;;;5.35;100.00
13732;BME280;6937;56.096;12.664;2024-01-27T00:41:28;101837.94;;;5.34;100.00
13732;BME280;6937;56.096;12.664;2024-01-27T00:43:53;101865.47;;;5.30;100.00
13732;BME280;6937;56.096;12.664;2024-01-27T00:46:19;101853.88;;;5.32;100.00
13732;BME280;6937;56.096;12.664;2024-01-27T00:48:44;101882.97;;;5.35;100.00
13732;BME280;6937;56.096;12.664;2024-01-27T00:51:09;101881.22;;;5.34;100.00
13732;BME280;6937;56.096;12.664;2024-01-27T00:53:35;101872.41;;;5.34;100.00
13732;BME280;6937;56.096;12.664;2024-01-27T00:56:00;101882.28;;;5.29;100.00
13732;BME280;6937;56.096;12.664;2024-01-27T00:58:26;101893.88;;;5.25;100.00
13732;BME280;6937;56.096;12.664;2024-01-27T01:00:52;101881.75;;;5.18;100.00
13732;BME280;6937;56.096;12.664;2024-01-27T01:03:17;101887.78;;;5.23;100.00
13732;BME280;6937;56.096;12.664;2024-01-27T01:05:43;101909.09;;;5.20;100.00
13732;BME280;6937;56.096;12.664;2024-01-27T01:08:08;101900.16;;;5.22;100.00
13732;BME280;6937;56.096;12.664;2024-01-27T01:10:33;101923.25;;;5.19;100.00
13732;BME280;6937;56.096;12.664;2024-01-27T01:12:59;101930.22;;;5.21;100.00
13732;BME280;6937;56.096;12.664;2024-01-27T01:15:24;101937.38;;;5.19;100.00
13732;BME280;6937;56.096;12.664;2024-01-27T01:17:49;101962.91;;;5.22;100.00
13732;BME280;6937;56.096;12.664;2024-01-27T01:20:15;101953.25;;;5.21;100.00
13732;BME280;6937;56.096;12.664;2024-01-27T01:22:40;101954.19;;;5.18;100.00
13732;BME280;6937;56.096;12.664;2024-01-27T01:25:06;101944.44;;;5.19;100.00
13732;BME280;6937;56.096;12.664;2024-01-27T01:27:31;101978.00;;;5.20;100.00
13732;BME280;6937;56.096;12.664;2024-01-27T01:29:57;101986.91;;;5.17;100.00
13732;BME280;6937;56.096;12.664;2024-01-27T01:32:22;101978.22;;;5.12;100.00
13732;BME280;6937;56.096;12.664;2024-01-27T01:34:47;101986.91;;;5.17;100.00
13732;BME280;6937;56.096;12.664;2024-01-27T01:37:13;101978.97;;;5.17;100.00
13732;BME280;6937;56.096;12.664;2024-01-27T01:39:39;101986.84;;;5.19;100.00
13732;BME280;6937;56.096;12.664;2024-01-27T01:42:04;101996.53;;;5.20;100.00
13732;BME280;6937;56.096;12.664;2024-01-27T01:44:30;101998.28;;;5.21;100.00
13732;BME280;6937;56.096;12.664;2024-01-27T01:46:59;101991.28;;;5.18;100.00
13732;BME280;6937;56.096;12.664;2024-01-27T01:49:24;101981.53;;;5.20;100.00
13732;BME280;6937;56.096;12.664;2024-01-27T01:51:50;102028.34;;;5.20;100.00
13732;BME280;6937;56.096;12.664;2024-01-27T01:54:15;102024.84;;;5.18;100.00
13732;BME280;6937;56.096;12.664;2024-01-27T01:56:42;102031.00;;;5.20;100.00
13732;BME280;6937;56.096;12.664;2024-01-27T01:59:07;102018.75;;;5.16;100.00
13732;BME280;6937;56.096;12.664;2024-01-27T02:01:33;102031.09;;;5.17;100.00
13732;BME280;6937;56.096;12.664;2024-01-27T02:03:58;102054.00;;;5.18;100.00
13732;BME280;6937;56.096;12.664;2024-01-27T02:06:24;102044.34;;;5.17;100.00
13732;BME280;6937;56.096;12.664;2024-01-27T02:08:50;102071.72;;;5.17;100.00
13732;BME280;6937;56.096;12.664;2024-01-27T02:11:16;102068.25;;;5.14;100.00
13732;BME280;6937;56.096;12.664;2024-01-27T02:13:42;102072.00;;;5.07;100.00
13732;BME280;6937;56.096;12.664;2024-01-27T02:16:07;102067.44;;;5.12;100.00
13732;BME280;6937;56.096;12.664;2024-01-27T02:18:32;102087.69;;;5.14;100.00
13732;BME280;6937;56.096;12.664;2024-01-27T02:20:58;102088.56;;;5.15;100.00
13732;BME280;6937;56.096;12.664;2024-01-27T02:23:23;102093.94;;;5.12;100.00
13732;BME280;6937;56.096;12.664;2024-01-27T02:25:49;102107.09;;;5.15;100.00
13732;BME280;6937;56.096;12.664;2024-01-27T02:28:16;102094.03;;;5.09;100.00
13732;BME280;6937;56.096;12.664;2024-01-27T02:30:41;102094.97;;;5.06;100.00
13732;BME280;6937;56.096;12.664;2024-01-27T02:33:07;102086.19;;;5.06;100.00
13732;BME280;6937;56.096;12.664;2024-01-27T02:35:32;102120.69;;;5.03;100.00
13732;BME280;6937;56.096;12.664;2024-01-27T02:37:57;102127.75;;;5.04;100.00
13732;BME280;6937;56.096;12.664;2024-01-27T02:40:23;102117.16;;;5.04;100.00
13732;BME280;6937;56.096;12.664;2024-01-27T02:42:48;102122.66;;;4.96;100.00
13732;BME280;6937;56.096;12.664;2024-01-27T02:45:14;102133.25;;;4.96;100.00
13732;BME280;6937;56.096;12.664;2024-01-27T02:47:39;102139.44;;;4.95;100.00
13732;BME280;6937;56.096;12.664;2024-01-27T02:50:05;102129.88;;;4.91;100.00
13732;BME280;6937;56.096;12.664;2024-01-27T02:52:34;102118.34;;;4.92;100.00
13732;BME280;6937;56.096;12.664;2024-01-27T02:54:59;102129.81;;;4.93;100.00
13732;BME280;6937;56.096;12.664;2024-01-27T02:57:25;102132.53;;;4.91;100.00
13732;BME280;6937;56.096;12.664;2024-01-27T02:59:50;102141.47;;;4.87;100.00
13732;BME280;6937;56.096;12.664;2024-01-27T03:02:16;102158.16;;;4.89;100.00
13732;BME280;6937;56.096;12.664;2024-01-27T03:04:41;102169.75;;;4.85;100.00
13732;BME280;6937;56.096;12.664;2024-01-27T03:07:07;102171.59;;;4.83;100.00
13732;BME280;6937;56.096;12.664;2024-01-27T03:09:32;102177.78;;;4.82;100.00
13732;BME280;6937;56.096;12.664;2024-01-27T03:11:58;102183.13;;;4.80;100.00
13732;BME280;6937;56.096;12.664;2024-01-27T03:14:23;102165.66;;;4.73;100.00
13732;BME280;6937;56.096;12.664;2024-01-27T03:16:49;102178.78;;;4.78;100.00
13732;BME280;6937;56.096;12.664;2024-01-27T03:19:15;102199.09;;;4.77;100.00
13732;BME280;6937;56.096;12.664;2024-01-27T03:21:40;102197.31;;;4.78;100.00
13732;BME280;6937;56.096;12.664;2024-01-27T03:24:06;102206.22;;;4.75;100.00
13732;BME280;6937;56.096;12.664;2024-01-27T03:26:31;102207.16;;;4.73;100.00
13732;BME280;6937;56.096;12.664;2024-01-27T03:28:56;102219.50;;;4.72;100.00
13732;BME280;6937;56.096;12.664;2024-01-27T03:31:23;102212.50;;;4.71;100.00
13732;BME280;6937;56.096;12.664;2024-01-27T03:33:48;102224.78;;;4.74;100.00
13732;BME280;6937;56.096;12.664;2024-01-27T03:36:14;102231.81;;;4.75;100.00
13732;BME280;6937;56.096;12.664;2024-01-27T03:38:42;102223.91;;;4.73;100.00
13732;BME280;6937;56.096;12.664;2024-01-27T03:41:08;102227.53;;;4.69;100.00
13732;BME280;6937;56.096;12.664;2024-01-27T03:43:33;102243.31;;;4.74;100.00
13732;BME280;6937;56.096;12.664;2024-01-27T03:45:59;102225.69;;;4.73;100.00
13732;BME280;6937;56.096;12.664;2024-01-27T03:48:25;102236.25;;;4.74;100.00
13732;BME280;6937;56.096;12.664;2024-01-27T03:50:50;102264.44;;;4.77;100.00
13732;BME280;6937;56.096;12.664;2024-01-27T03:53:16;102256.53;;;4.75;100.00
13732;BME280;6937;56.096;12.664;2024-01-27T03:55:41;102252.97;;;4.76;100.00
13732;BME280;6937;56.096;12.664;2024-01-27T03:58:07;102246.88;;;4.73;100.00
13732;BME280;6937;56.096;12.664;2024-01-27T04:00:32;102275.94;;;4.76;100.00
13732;BME280;6937;56.096;12.664;2024-01-27T04:03:02;102258.34;;;4.73;100.00
13732;BME280;6937;56.096;12.664;2024-01-27T04:05:29;102275.13;;;4.72;100.00
13732;BME280;6937;56.096;12.664;2024-01-27T04:07:55;102275.97;;;4.74;100.00
13732;BME280;6937;56.096;12.664;2024-01-27T04:10:21;102283.06;;;4.74;100.00
13732;BME280;6937;56.096;12.664;2024-01-27T04:12:47;102276.94;;;4.70;100.00
13732;BME280;6937;56.096;12.664;2024-01-27T04:15:12;102287.56;;;4.69;100.00
13732;BME280;6937;56.096;12.664;2024-01-27T04:17:39;102285.88;;;4.66;100.00
13732;BME280;6937;56.096;12.664;2024-01-27T04:20:05;102302.63;;;4.68;100.00
13732;BME280;6937;56.096;12.664;2024-01-27T04:22:32;102315.88;;;4.67;100.00
13732;BME280;6937;56.096;12.664;2024-01-27T04:24:57;102309.75;;;4.65;100.00
13732;BME280;6937;56.096;12.664;2024-01-27T04:27:23;102312.44;;;4.63;100.00
13732;BME280;6937;56.096;12.664;2024-01-27T04:29:48;102317.72;;;4.63;100.00
13732;BME280;6937;56.096;12.664;2024-01-27T04:32:14;102312.50;;;4.60;100.00
13732;BME280;6937;56.096;12.664;2024-01-27T04:34:39;102321.34;;;4.61;100.00
13732;BME280;6937;56.096;12.664;2024-01-27T04:37:05;102320.41;;;4.62;100.00
13732;BME280;6937;56.096;12.664;2024-01-27T04:39:30;102326.63;;;4.61;100.00
13732;BME280;6937;56.096;12.664;2024-01-27T04:41:56;102330.25;;;4.57;100.00
13732;BME280;6937;56.096;12.664;2024-01-27T04:44:21;102334.63;;;4.58;100.00
13732;BME280;6937;56.096;12.664;2024-01-27T04:46:47;102325.88;;;4.54;100.00
13732;BME280;6937;56.096;12.664;2024-01-27T04:49:14;102347.84;;;4.59;100.00
13732;BME280;6937;56.096;12.664;2024-01-27T04:51:39;102346.06;;;4.60;100.00
13732;BME280;6937;56.096;12.664;2024-01-27T04:54:05;102346.00;;;4.61;100.00
13732;BME280;6937;56.096;12.664;2024-01-27T04:56:30;102344.22;;;4.62;100.00
13732;BME280;6937;56.096;12.664;2024-01-27T04:58:55;102352.16;;;4.63;100.00
13732;BME280;6937;56.096;12.664;2024-01-27T05:01:21;102350.38;;;4.64;100.00
13732;BME280;6937;56.096;12.664;2024-01-27T05:03:46;102360.09;;;4.65;100.00
13732;BME280;6937;56.096;12.664;2024-01-27T05:06:12;102363.66;;;4.62;100.00
13732;BME280;6937;56.096;12.664;2024-01-27T05:08:38;102368.03;;;4.63;100.00
13732;BME280;6937;56.096;12.664;2024-01-27T05:11:04;102353.94;;;4.61;100.00
13732;BME280;6937;56.096;12.664;2024-01-27T05:13:29;102377.66;;;4.67;100.00
13732;BME280;6937;56.096;12.664;2024-01-27T05:15:55;102381.19;;;4.68;100.00
13732;BME280;6937;56.096;12.664;2024-01-27T05:18:21;102364.34;;;4.70;100.00
13732;BME280;6937;56.096;12.664;2024-01-27T05:20:46;102372.38;;;4.67;100.00
13732;BME280;6937;56.096;12.664;2024-01-27T05:23:12;102380.34;;;4.66;100.00
13732;BME280;6937;56.096;12.664;2024-01-27T05:25:37;102383.91;;;4.65;100.00
13732;BME280;6937;56.096;12.664;2024-01-27T05:28:04;102385.63;;;4.66;100.00
13732;BME280;6937;56.096;12.664;2024-01-27T05:30:30;102393.63;;;4.64;100.00
13732;BME280;6937;56.096;12.664;2024-01-27T05:32:55;102403.34;;;4.64;100.00
13732;BME280;6937;56.096;12.664;2024-01-27T05:35:20;102405.94;;;4.65;100.00
13732;BME280;6937;56.096;12.664;2024-01-27T05:37:46;102398.97;;;4.61;100.00
13732;BME280;6937;56.096;12.664;2024-01-27T05:40:11;102411.22;;;4.67;100.00
13732;BME280;6937;56.096;12.664;2024-01-27T05:42:37;102425.34;;;4.66;100.00
13732;BME280;6937;56.096;12.664;2024-01-27T05:45:02;102424.47;;;4.65;100.00
13732;BME280;6937;56.096;12.664;2024-01-27T05:47:28;102436.91;;;4.62;100.00
13732;BME280;6937;56.096;12.664;2024-01-27T05:49:54;102443.97;;;4.63;100.00
13732;BME280;6937;56.096;12.664;2024-01-27T05:52:19;102448.44;;;4.59;100.00
13732;BME280;6937;56.096;12.664;2024-01-27T05:54:44;102452.84;;;4.60;100.00
13732;BME280;6937;56.096;12.664;2024-01-27T05:57:10;102446.75;;;4.57;100.00
13732;BME280;6937;56.096;12.664;2024-01-27T05:59:35;102453.75;;;4.58;100.00
13732;BME280;6937;56.096;12.664;2024-01-27T06:02:01;102458.25;;;4.56;100.00
13732;BME280;6937;56.096;12.664;2024-01-27T06:04:26;102474.13;;;4.56;100.00
13732;BME280;6937;56.096;12.664;2024-01-27T06:06:52;102473.25;;;4.55;100.00
13732;BME280;6937;56.096;12.664;2024-01-27T06:09:17;102475.03;;;4.55;100.00
13732;BME280;6937;56.096;12.664;2024-01-27T06:11:43;102490.91;;;4.55;100.00
13732;BME280;6937;56.096;12.664;2024-01-27T06:14:08;102481.28;;;4.51;100.00
13732;BME280;6937;56.096;12.664;2024-01-27T06:16:34;102489.22;;;4.51;100.00
13732;BME280;6937;56.096;12.664;2024-01-27T06:19:00;102487.44;;;4.51;100.00
13732;BME280;6937;56.096;12.664;2024-01-27T06:21:26;102503.38;;;4.50;100.00
13732;BME280;6937;56.096;12.664;2024-01-27T06:23:51;102513.91;;;4.51;100.00
13732;BME280;6937;56.096;12.664;2024-01-27T06:26:17;102513.97;;;4.50;100.00
13732;BME280;6937;56.096;12.664;2024-01-27T06:28:42;102519.25;;;4.50;100.00
13732;BME280;6937;56.096;12.664;2024-01-27T06:31:08;102533.41;;;4.49;100.00
13732;BME280;6937;56.096;12.664;2024-01-27T06:33:34;102540.41;;;4.51;100.00
13732;BME280;6937;56.096;12.664;2024-01-27T06:36:00;102542.22;;;4.48;100.00
13732;BME280;6937;56.096;12.664;2024-01-27T06:38:27;102534.34;;;4.45;100.00
13732;BME280;6937;56.096;12.664;2024-01-27T06:40:52;102551.94;;;4.49;100.00
13732;BME280;6937;56.096;12.664;2024-01-27T06:43:19;102559.88;;;4.49;100.00
13732;BME280;6937;56.096;12.664;2024-01-27T06:45:45;102570.47;;;4.49;100.00
13732;BME280;6937;56.096;12.664;2024-01-27T06:48:10;102571.34;;;4.48;100.00
13732;BME280;6937;56.096;12.664;2024-01-27T06:50:35;102568.75;;;4.46;100.00
13732;BME280;6937;56.096;12.664;2024-01-27T06:53:01;102587.19;;;4.51;100.00
13732;BME280;6937;56.096;12.664;2024-01-27T06:55:26;102582.75;;;4.53;100.00
13732;BME280;6937;56.096;12.664;2024-01-27T06:57:52;102588.88;;;4.55;100.00
13732;BME280;6937;56.096;12.664;2024-01-27T07:00:18;102588.81;;;4.58;100.00
13732;BME280;6937;56.096;12.664;2024-01-27T07:02:44;102596.81;;;4.56;100.00
13732;BME280;6937;56.096;12.664;2024-01-27T07:05:09;102602.97;;;4.57;100.00
13732;BME280;6937;56.096;12.664;2024-01-27T07:07:35;102603.84;;;4.57;100.00
13732;BME280;6937;56.096;12.664;2024-01-27T07:10:01;102618.81;;;4.58;100.00
13732;BME280;6937;56.096;12.664;2024-01-27T07:12:27;102608.28;;;4.57;100.00
13732;BME280;6937;56.096;12.664;2024-01-27T07:14:52;102605.63;;;4.57;100.00
13732;BME280;6937;56.096;12.664;2024-01-27T07:17:18;102614.47;;;4.56;100.00
13732;BME280;6937;56.096;12.664;2024-01-27T07:19:43;102620.66;;;4.55;100.00
13732;BME280;6937;56.096;12.664;2024-01-27T07:22:09;102618.03;;;4.53;100.00
13732;BME280;6937;56.096;12.664;2024-01-27T07:24:35;102631.22;;;4.56;100.00
13732;BME280;6937;56.096;12.664;2024-01-27T07:27:01;102626.84;;;4.54;100.00
13732;BME280;6937;56.096;12.664;2024-01-27T07:29:27;102630.41;;;4.51;100.00
13732;BME280;6937;56.096;12.664;2024-01-27T07:31:53;102630.41;;;4.51;100.00
13732;BME280;6937;56.096;12.664;2024-01-27T07:34:18;102631.28;;;4.53;100.00
13732;BME280;6937;56.096;12.664;2024-01-27T07:36:44;102634.78;;;4.54;100.00
13732;BME280;6937;56.096;12.664;2024-01-27T07:39:10;102634.75;;;4.57;100.00
13732;BME280;6937;56.096;12.664;2024-01-27T07:41:35;102642.69;;;4.57;100.00
13732;BME280;6937;56.096;12.664;2024-01-27T07:44:08;102640.06;;;4.55;100.00
13732;BME280;6937;56.096;12.664;2024-01-27T07:46:34;102653.25;;;4.58;100.00
13732;BME280;6937;56.096;12.664;2024-01-27T07:49:01;102650.53;;;4.61;100.00
13732;BME280;6937;56.096;12.664;2024-01-27T07:51:27;102669.91;;;4.65;100.00
13732;BME280;6937;56.096;12.664;2024-01-27T07:53:53;102662.88;;;4.62;100.00
13732;BME280;6937;56.096;12.664;2024-01-27T07:56:19;102669.06;;;4.61;100.00
13732;BME280;6937;56.096;12.664;2024-01-27T07:58:44;102669.19;;;4.57;100.00
13732;BME280;6937;56.096;12.664;2024-01-27T08:01:09;102685.84;;;4.62;100.00
13732;BME280;6937;56.096;12.664;2024-01-27T08:03:35;102689.34;;;4.64;100.00
13732;BME280;6937;56.096;12.664;2024-01-27T08:06:04;102683.97;;;4.68;100.00
13732;BME280;6937;56.096;12.664;2024-01-27T08:08:30;102701.59;;;4.71;100.00
13732;BME280;6937;56.096;12.664;2024-01-27T08:10:55;102689.22;;;4.71;100.00
13732;BME280;6937;56.096;12.664;2024-01-27T08:13:21;102705.94;;;4.75;100.00
13732;BME280;6937;56.096;12.664;2024-01-27T08:15:46;102709.41;;;4.77;100.00
13732;BME280;6937;56.096;12.664;2024-01-27T08:18:11;102711.16;;;4.78;100.00
13732;BME280;6937;56.096;12.664;2024-01-27T08:20:37;102703.22;;;4.78;100.00
13732;BME280;6937;56.096;12.664;2024-01-27T08:23:02;102709.34;;;4.80;100.00
13732;BME280;6937;56.096;12.664;2024-01-27T08:25:28;102710.22;;;4.83;100.00
13732;BME280;6937;56.096;12.664;2024-01-27T08:27:53;102711.88;;;4.87;100.00
13732;BME280;6937;56.096;12.664;2024-01-27T08:30:19;102724.22;;;4.90;100.00
13732;BME280;6937;56.096;12.664;2024-01-27T08:32:44;102725.97;;;4.91;100.00
13732;BME280;6937;56.096;12.664;2024-01-27T08:35:09;102734.75;;;4.93;100.00
13732;BME280;6937;56.096;12.664;2024-01-27T08:37:35;102752.34;;;4.96;100.00
13732;BME280;6937;56.096;12.664;2024-01-27T08:40:05;102742.63;;;4.96;100.00
13732;BME280;6937;56.096;12.664;2024-01-27T08:42:30;102747.00;;;5.00;100.00
13732;BME280;6937;56.096;12.664;2024-01-27T08:44:56;102745.22;;;4.99;100.00
13732;BME280;6937;56.096;12.664;2024-01-27T08:47:21;102750.38;;;5.08;100.00
13732;BME280;6937;56.096;12.664;2024-01-27T08:49:47;102763.47;;;5.17;100.00
13732;BME280;6937;56.096;12.664;2024-01-27T08:52:12;102763.34;;;5.23;100.00
13732;BME280;6937;56.096;12.664;2024-01-27T08:54:37;102770.22;;;5.35;100.00
13732;BME280;6937;56.096;12.664;2024-01-27T08:57:03;102769.19;;;5.42;100.00
13732;BME280;6937;56.096;12.664;2024-01-27T08:59:29;102762.88;;;5.48;100.00
13732;BME280;6937;56.096;12.664;2024-01-27T09:01:54;102776.03;;;5.54;100.00
13732;BME280;6937;56.096;12.664;2024-01-27T09:04:20;102779.50;;;5.57;100.00
13732;BME280;6937;56.096;12.664;2024-01-27T09:06:46;102777.75;;;5.58;100.00
13732;BME280;6937;56.096;12.664;2024-01-27T09:09:11;102775.97;;;5.57;100.00
13732;BME280;6937;56.096;12.664;2024-01-27T09:11:37;102795.38;;;5.59;100.00
13732;BME280;6937;56.096;12.664;2024-01-27T09:14:03;102790.91;;;5.62;100.00
13732;BME280;6937;56.096;12.664;2024-01-27T09:16:30;102792.63;;;5.65;100.00
13732;BME280;6937;56.096;12.664;2024-01-27T09:18:55;102793.44;;;5.67;100.00
13732;BME280;6937;56.096;12.664;2024-01-27T09:21:21;102803.09;;;5.72;100.00
13732;BME280;6937;56.096;12.664;2024-01-27T09:23:53;102801.19;;;5.77;100.00
13732;BME280;6937;56.096;12.664;2024-01-27T09:26:18;102807.34;;;5.81;100.00
13732;BME280;6937;56.096;12.664;2024-01-27T09:28:44;102804.69;;;5.81;100.00
13732;BME280;6937;56.096;12.664;2024-01-27T09:31:11;102801.03;;;5.85;100.00
13732;BME280;6937;56.096;12.664;2024-01-27T09:33:37;102797.56;;;5.83;100.00
13732;BME280;6937;56.096;12.664;2024-01-27T09:36:02;102794.88;;;5.84;100.00
13732;BME280;6937;56.096;12.664;2024-01-27T09:38:28;102794.81;;;5.89;100.00
13732;BME280;6937;56.096;12.664;2024-01-27T09:40:54;102787.78;;;5.87;100.00
13732;BME280;6937;56.096;12.664;2024-01-27T09:43:21;102779.75;;;5.91;100.00
13732;BME280;6937;56.096;12.664;2024-01-27T09:45:46;102792.03;;;5.95;100.00
13732;BME280;6937;56.096;12.664;2024-01-27T09:48:12;102792.03;;;5.95;100.00
13732;BME280;6937;56.096;12.664;2024-01-27T09:50:44;102790.28;;;5.94;100.00
13732;BME280;6937;56.096;12.664;2024-01-27T09:53:10;102795.66;;;5.91;100.00
13732;BME280;6937;56.096;12.664;2024-01-27T09:55:37;102788.53;;;5.93;100.00
13732;BME280;6937;56.096;12.664;2024-01-27T09:58:03;102783.19;;;5.95;100.00
13732;BME280;6937;56.096;12.664;2024-01-27T10:00:29;102791.13;;;5.96;100.00
13732;BME280;6937;56.096;12.664;2024-01-27T10:02:56;102787.47;;;6.02;100.00
13732;BME280;6937;56.096;12.664;2024-01-27T10:05:23;102782.16;;;6.03;100.00
13732;BME280;6937;56.096;12.664;2024-01-27T10:07:48;102781.09;;;6.10;100.00
13732;BME280;6937;56.096;12.664;2024-01-27T10:10:14;102783.59;;;6.16;100.00
13732;BME280;6937;56.096;12.664;2024-01-27T10:12:41;102773.78;;;6.20;100.00
13732;BME280;6937;56.096;12.664;2024-01-27T10:15:19;102769.28;;;6.23;100.00
13732;BME280;6937;56.096;12.664;2024-01-27T10:17:45;102779.00;;;6.26;100.00
13732;BME280;6937;56.096;12.664;2024-01-27T10:20:11;102771.69;;;6.34;100.00
13732;BME280;6937;56.096;12.664;2024-01-27T10:22:41;102768.16;;;6.35;100.00
13732;BME280;6937;56.096;12.664;2024-01-27T10:25:08;102767.16;;;6.39;100.00
13732;BME280;6937;56.096;12.664;2024-01-27T10:27:34;102765.31;;;6.43;100.00
13732;BME280;6937;56.096;12.664;2024-01-27T10:30:00;102774.94;;;6.48;100.00
13732;BME280;6937;56.096;12.664;2024-01-27T10:32:25;102770.44;;;6.52;100.00
13732;BME280;6937;56.096;12.664;2024-01-27T10:35:06;102768.50;;;6.57;100.00
13732;BME280;6937;56.096;12.664;2024-01-27T10:37:39;102779.06;;;6.60;100.00
13732;BME280;6937;56.096;12.664;2024-01-27T10:40:06;102759.63;;;6.59;100.00
13732;BME280;6937;56.096;12.664;2024-01-27T10:42:36;102770.16;;;6.62;100.00
13732;BME280;6937;56.096;12.664;2024-01-27T10:45:02;102758.63;;;6.63;100.00
13732;BME280;6937;56.096;12.664;2024-01-27T10:47:30;102762.13;;;6.65;100.00
13732;BME280;6937;56.096;12.664;2024-01-27T10:49:57;102759.47;;;6.64;100.00
13732;BME280;6937;56.096;12.664;2024-01-27T10:52:32;102762.94;;;6.67;100.00
13732;BME280;6937;56.096;12.664;2024-01-27T10:54:58;102755.91;;;6.66;100.00
13732;BME280;6937;56.096;12.664;2024-01-27T10:57:29;102747.75;;;6.72;100.00
13732;BME280;6937;56.096;12.664;2024-01-27T10:59:56;102756.53;;;6.76;100.00
13732;BME280;6937;56.096;12.664;2024-01-27T11:02:22;102765.31;;;6.79;100.00
13732;BME280;6937;56.096;12.664;2024-01-27T11:04:48;102766.19;;;6.80;100.00
13732;BME280;6937;56.096;12.664;2024-01-27T11:07:15;102767.94;;;6.81;100.00
13732;BME280;6937;56.096;12.664;2024-01-27T11:09:42;102768.66;;;6.88;100.00
13732;BME280;6937;56.096;12.664;2024-01-27T11:12:08;102766.97;;;6.84;100.00
13732;BME280;6937;56.096;12.664;2024-01-27T11:14:35;102767.84;;;6.84;100.00
13732;BME280;6937;56.096;12.664;2024-01-27T11:17:00;102783.78;;;6.84;100.00
13732;BME280;6937;56.096;12.664;2024-01-27T11:19:26;102775.66;;;6.90;100.00
13732;BME280;6937;56.096;12.664;2024-01-27T11:22:04;102776.59;;;6.89;100.00
13732;BME280;6937;56.096;12.664;2024-01-27T11:24:30;102784.50;;;6.91;100.00
13732;BME280;6937;56.096;12.664;2024-01-27T11:27:03;102779.16;;;6.92;100.00
13732;BME280;6937;56.096;12.664;2024-01-27T11:29:28;102790.50;;;7.00;100.00
13732;BME280;6937;56.096;12.664;2024-01-27T11:31:55;102788.66;;;7.02;100.00
13732;BME280;6937;56.096;12.664;2024-01-27T11:34:21;102791.31;;;7.02;100.00
13732;BME280;6937;56.096;12.664;2024-01-27T11:36:47;102806.53;;;6.97;100.00
13732;BME280;6937;56.096;12.664;2024-01-27T11:39:42;102825.06;;;6.99;100.00
13732;BME280;6937;56.096;12.664;2024-01-27T11:42:09;102810.91;;;6.98;100.00
13732;BME280;6937;56.096;12.664;2024-01-27T11:44:37;102825.97;;;6.98;100.00
13732;BME280;6937;56.096;12.664;2024-01-27T11:47:03;102826.91;;;6.97;100.00
13732;BME280;6937;56.096;12.664;2024-01-27T11:49:28;102832.09;;;7.01;100.00
13732;BME280;6937;56.096;12.664;2024-01-27T11:51:54;102839.09;;;7.05;100.00
13732;BME280;6937;56.096;12.664;2024-01-27T11:54:20;102836.44;;;7.05;100.00
13732;BME280;6937;56.096;12.664;2024-01-27T11:56:45;102832.16;;;6.98;100.00
13732;BME280;6937;56.096;12.664;2024-01-27T11:59:11;102843.69;;;6.99;100.00
13732;BME280;6937;56.096;12.664;2024-01-27T12:01:37;102834.91;;;6.95;100.00
13732;BME280;6937;56.096;12.664;2024-01-27T12:04:04;102830.38;;;7.00;100.00
13732;BME280;6937;56.096;12.664;2024-01-27T12:06:30;102833.94;;;6.99;100.00
13732;BME280;6937;56.096;12.664;2024-01-27T12:08:56;102818.94;;;6.97;100.00
13732;BME280;6937;56.096;12.664;2024-01-27T12:11:25;102828.63;;;6.99;100.00
13732;BME280;6937;56.096;12.664;2024-01-27T12:13:52;102827.78;;;6.97;100.00
13732;BME280;6937;56.096;12.664;2024-01-27T12:16:18;102834.00;;;6.96;100.00
13732;BME280;6937;56.096;12.664;2024-01-27T12:18:44;102833.16;;;6.94;100.00
13732;BME280;6937;56.096;12.664;2024-01-27T12:21:10;102835.91;;;6.91;100.00
13732;BME280;6937;56.096;12.664;2024-01-27T12:23:36;102858.03;;;6.92;100.00
13732;BME280;6937;56.096;12.664;2024-01-27T12:26:01;102855.47;;;6.87;100.00
13732;BME280;6937;56.096;12.664;2024-01-27T12:28:27;102847.41;;;6.92;100.00
13732;BME280;6937;56.096;12.664;2024-01-27T12:30:53;102851.75;;;6.96;100.00
13732;BME280;6937;56.096;12.664;2024-01-27T12:33:19;102850.78;;;6.98;100.00
13732;BME280;6937;56.096;12.664;2024-01-27T12:35:48;102855.19;;;7.01;100.00
13732;BME280;6937;56.096;12.664;2024-01-27T12:38:14;102849.91;;;6.98;100.00
13732;BME280;6937;56.096;12.664;2024-01-27T12:40:40;102848.88;;;7.05;100.00
13732;BME280;6937;56.096;12.664;2024-01-27T12:43:05;102848.13;;;6.98;100.00